Time;durP1;ratioP1;P1;durP2;ratioP2;P2;SDS_P1;SDS_P2;PMS_P1;PMS_P2;Temp;Humidity;BMP_temperature;BMP_pressure;BME280_temperature;BME280_humidity;BME280_pressure;Samples;Min_cycle;Max_cycle;Signal;HPM_P1;HPM_P2
2022/06/04 00:00:50;;;;;;;11.93;10.70;;;19.20;99.90;;;;;;5035607;28;20037;-64
2022/06/04 00:03:17;;;;;;;14.38;11.07;;;19.20;99.90;;;;;;5035240;28;20498;-65
2022/06/04 00:05:47;;;;;;;13.52;11.43;;;19.20;99.90;;;;;;5034971;28;20036;-65
2022/06/04 00:08:13;;;;;;;11.55;10.32;;;19.20;99.90;;;;;;5034920;28;20025;-65
2022/06/04 00:16:14;;;;;;;14.15;11.52;;;19.30;99.90;;;;;;5034816;28;20035;-65
2022/06/04 00:18:40;;;;;;;11.60;10.40;;;19.30;99.90;;;;;;5034398;28;20100;-66
2022/06/04 00:21:07;;;;;;;11.43;10.07;;;19.30;99.90;;;;;;5033688;28;20037;-65
2022/06/04 00:23:33;;;;;;;14.02;10.32;;;19.30;99.90;;;;;;5032485;28;20036;-65
2022/06/04 00:26:00;;;;;;;12.93;11.05;;;19.30;99.90;;;;;;5032743;28;20021;-66
2022/06/04 00:28:26;;;;;;;14.35;10.52;;;19.30;99.90;;;;;;5034348;28;20075;-66
2022/06/04 00:30:53;;;;;;;12.13;10.38;;;19.30;99.90;;;;;;5033880;28;20417;-66
2022/06/04 00:33:19;;;;;;;13.20;10.52;;;19.30;99.90;;;;;;5034543;28;20021;-66
2022/06/04 00:35:47;;;;;;;13.55;8.95;;;19.40;99.90;;;;;;5033903;28;20036;-65
2022/06/04 00:38:15;;;;;;;10.57;8.95;;;19.40;99.90;;;;;;5035177;28;20102;-66
2022/06/04 00:40:59;;;;;;;10.50;9.00;;;19.30;99.90;;;;;;5035784;28;20087;-65
2022/06/04 00:43:24;;;;;;;11.60;10.30;;;19.30;99.90;;;;;;5035923;28;20448;-65
2022/06/04 00:46:11;;;;;;;12.98;10.27;;;19.30;99.90;;;;;;5037029;28;20033;-65
2022/06/04 00:48:36;;;;;;;12.93;10.32;;;19.30;99.90;;;;;;5034369;28;20024;-64
2022/06/04 00:51:05;;;;;;;11.02;9.43;;;19.30;99.90;;;;;;5033332;28;20038;-65
2022/06/04 00:53:31;;;;;;;11.23;9.20;;;19.30;99.90;;;;;;5033633;28;20550;-65
2022/06/04 00:56:08;;;;;;;;;;;19.20;99.90;;;;;;5033840;28;20476;-65
2022/06/04 00:59:02;;;;;;;11.68;9.40;;;19.20;99.90;;;;;;5033709;28;19905;-66
2022/06/04 01:01:43;;;;;;;12.95;11.40;;;19.20;99.90;;;;;;5032085;28;20209;-66
2022/06/04 01:04:48;;;;;;;15.25;11.63;;;19.10;99.90;;;;;;5033372;28;20034;-65
2022/06/04 01:07:39;;;;;;;15.20;11.25;;;19.10;99.90;;;;;;5031958;28;20113;-66
2022/06/04 01:10:20;;;;;;;14.68;11.93;;;18.90;99.90;;;;;;5036533;28;20054;-65
2022/06/04 01:13:11;;;;;;;13.65;12.10;;;18.90;99.90;;;;;;5037175;28;20017;-65
2022/06/04 01:15:57;;;;;;;13.57;11.85;;;18.90;99.90;;;;;;5037588;28;20541;-66
2022/06/04 01:19:01;;;;;;;14.18;12.70;;;18.80;99.90;;;;;;5035650;28;20048;-64
2022/06/04 01:21:38;;;;;;;17.30;13.63;;;18.80;99.90;;;;;;5036013;28;20092;-64
2022/06/04 01:24:35;;;;;;;13.70;12.02;;;18.80;99.90;;;;;;5036394;28;20031;-65
2022/06/04 01:27:15;;;;;;;13.52;12.13;;;18.70;99.90;;;;;;5036356;28;20024;-66
2022/06/04 01:29:50;;;;;;;15.45;12.05;;;18.70;99.90;;;;;;5036975;28;20029;-64
2022/06/04 01:32:26;;;;;;;14.88;13.38;;;18.70;99.90;;;;;;5036995;28;20391;-64
2022/06/04 01:35:04;;;;;;;14.82;12.23;;;18.60;99.90;;;;;;5036551;28;20037;-65
2022/06/04 01:38:14;;;;;;;18.85;12.43;;;18.70;99.90;;;;;;5037102;28;20034;-65
2022/06/04 01:41:03;;;;;;;13.50;11.88;;;18.60;99.90;;;;;;4995619;28;20046;-64
2022/06/04 01:43:35;;;;;;;13.18;11.77;;;18.60;99.90;;;;;;4995269;28;20496;-65
2022/06/04 01:46:09;;;;;;;14.80;13.02;;;18.50;99.90;;;;;;4994928;28;20042;-65
2022/06/04 01:48:39;;;;;;;14.73;12.50;;;18.50;99.90;;;;;;4995259;28;20049;-64
2022/06/04 01:51:06;;;;;;;14.57;12.65;;;18.50;99.90;;;;;;4994893;28;20038;-64
2022/06/04 01:53:39;;;;;;;14.88;11.93;;;18.50;99.90;;;;;;4994891;28;20034;-64
2022/06/04 01:56:18;;;;;;;13.93;11.73;;;18.40;99.90;;;;;;4995324;28;20042;-64
2022/06/04 01:59:13;;;;;;;18.77;12.38;;;18.40;99.90;;;;;;4995225;28;20046;-63
2022/06/04 02:01:41;;;;;;;12.43;11.07;;;18.40;99.90;;;;;;4994763;28;20061;-64
2022/06/04 02:04:25;;;;;;;16.35;11.35;;;18.40;99.90;;;;;;4994850;28;20026;-65
2022/06/04 02:09:42;;;;;;;14.60;11.63;;;18.40;99.90;;;;;;4994926;28;20041;-64
2022/06/04 02:12:10;;;;;;;15.05;11.15;;;18.40;99.90;;;;;;4994528;28;20045;-65
2022/06/04 02:14:36;;;;;;;12.07;10.02;;;18.40;99.90;;;;;;5017875;28;20429;-65
2022/06/04 02:17:06;;;;;;;11.55;10.35;;;18.50;99.90;;;;;;5036804;28;20037;-65
2022/06/04 02:19:32;;;;;;;10.65;9.50;;;18.50;99.90;;;;;;5035161;28;20037;-65
2022/06/04 02:21:58;;;;;;;10.93;9.82;;;18.50;99.90;;;;;;5036066;28;20495;-65
2022/06/04 02:24:23;;;;;;;11.25;10.07;;;18.50;99.90;;;;;;5035840;28;20040;-65
2022/06/04 02:26:49;;;;;;;11.50;10.32;;;18.50;99.90;;;;;;5036302;28;20446;-65
2022/06/04 02:29:15;;;;;;;11.55;10.32;;;18.50;99.90;;;;;;5035979;28;20100;-64
2022/06/04 02:31:41;;;;;;;;;;;18.50;99.90;;;;;;5036908;28;20022;-65
2022/06/04 02:34:38;;;;;;;12.70;10.48;;;18.40;99.90;;;;;;5035749;28;19912;-65
2022/06/04 02:37:12;;;;;;;13.80;11.20;;;18.30;99.90;;;;;;5035976;28;20507;-65
2022/06/04 02:39:53;;;;;;;11.55;10.10;;;18.20;99.90;;;;;;5035871;28;20026;-65
2022/06/04 02:42:26;;;;;;;12.95;10.45;;;18.10;99.90;;;;;;5035865;28;20049;-65
2022/06/04 02:45:02;;;;;;;13.45;10.60;;;18.10;99.90;;;;;;5035458;28;20081;-64
2022/06/04 02:47:43;;;;;;;13.02;10.80;;;18.00;99.90;;;;;;5035558;28;20021;-66
2022/06/04 02:50:32;;;;;;;12.05;10.75;;;17.90;99.90;;;;;;5033915;28;20017;-64
2022/06/04 02:53:01;;;;;;;12.73;10.95;;;17.80;99.90;;;;;;5035056;28;20021;-64
2022/06/04 02:55:31;;;;;;;13.18;10.85;;;17.80;99.90;;;;;;5034995;28;20083;-64
2022/06/04 02:58:01;;;;;;;11.73;10.40;;;17.80;99.90;;;;;;5033614;28;20072;-64
2022/06/04 03:00:28;;;;;;;11.35;10.15;;;17.70;99.90;;;;;;5034877;28;20022;-65
2022/06/04 03:02:54;;;;;;;10.10;9.10;;;17.70;99.90;;;;;;5035425;28;20018;-65
2022/06/04 03:05:25;;;;;;;10.20;9.20;;;17.70;99.90;;;;;;5035661;28;20021;-64
2022/06/04 03:07:56;;;;;;;12.32;10.13;;;17.70;99.90;;;;;;5035556;28;20113;-64
2022/06/04 03:10:31;;;;;;;11.68;9.82;;;17.70;99.90;;;;;;5034970;28;20028;-64
2022/06/04 03:12:57;;;;;;;11.25;10.07;;;17.60;99.90;;;;;;5035453;28;20021;-64
2022/06/04 03:15:23;;;;;;;12.68;10.75;;;17.60;99.90;;;;;;5033758;28;20400;-64
2022/06/04 03:17:50;;;;;;;15.50;10.13;;;17.60;99.90;;;;;;5033775;28;20053;-64
2022/06/04 03:20:20;;;;;;;12.82;9.32;;;17.60;99.90;;;;;;5034611;28;20043;-65
2022/06/04 03:22:45;;;;;;;18.40;10.05;;;17.60;99.90;;;;;;5035706;28;20021;-64
2022/06/04 03:25:11;;;;;;;12.18;10.88;;;17.60;99.90;;;;;;5035139;28;20026;-64
2022/06/04 03:27:37;;;;;;;11.80;10.57;;;17.70;99.90;;;;;;5034063;28;20480;-64
2022/06/04 03:30:04;;;;;;;11.35;9.63;;;17.60;99.90;;;;;;5035133;28;20031;-65
2022/06/04 03:32:29;;;;;;;12.25;9.63;;;17.70;99.90;;;;;;5032921;28;20056;-64
2022/06/04 03:34:55;;;;;;;10.07;9.00;;;17.70;99.90;;;;;;5035072;28;20025;-64
2022/06/04 03:37:21;;;;;;;11.52;9.10;;;17.70;99.90;;;;;;5035536;28;20041;-65
2022/06/04 03:39:46;;;;;;;10.77;8.68;;;17.80;99.90;;;;;;5035168;28;20087;-64
2022/06/04 03:42:12;;;;;;;10.98;8.95;;;17.80;99.90;;;;;;5034535;28;20030;-65
2022/06/04 03:44:38;;;;;;;11.10;9.15;;;17.80;99.90;;;;;;5033189;28;20057;-65
2022/06/04 03:47:05;;;;;;;11.70;9.02;;;17.80;99.90;;;;;;5033353;28;20033;-65
2022/06/04 03:49:31;;;;;;;10.65;9.55;;;17.80;99.90;;;;;;5034832;28;20022;-64
2022/06/04 03:51:57;;;;;;;9.90;8.90;;;17.80;99.90;;;;;;5034495;28;20085;-64
2022/06/04 03:54:52;;;;;;;10.70;9.07;;;17.80;99.90;;;;;;5034836;28;20049;-65
2022/06/04 03:59:53;;;;;;;9.77;8.77;;;17.80;99.90;;;;;;5034975;28;20036;-65
2022/06/04 04:02:19;;;;;;;12.93;9.15;;;17.80;99.90;;;;;;5034957;28;20025;-64
2022/06/04 04:04:45;;;;;;;12.95;9.15;;;17.90;99.90;;;;;;5034454;28;20028;-64
2022/06/04 04:07:11;;;;;;;9.38;8.48;;;18.00;99.90;;;;;;5034392;28;20096;-66
2022/06/04 04:09:36;;;;;;;10.55;9.38;;;18.00;99.90;;;;;;5034402;28;20109;-65
2022/06/04 04:12:02;;;;;;;9.77;8.57;;;18.00;99.90;;;;;;5034551;28;20466;-65
2022/06/04 04:14:28;;;;;;;9.95;8.85;;;18.00;99.90;;;;;;5034536;28;20120;-65
2022/06/04 04:16:53;;;;;;;12.85;8.82;;;18.00;99.90;;;;;;5034780;28;20025;-65
2022/06/04 04:19:19;;;;;;;11.82;8.63;;;18.00;99.90;;;;;;5034317;28;20530;-65
2022/06/04 04:21:44;;;;;;;8.85;7.88;;;18.00;99.90;;;;;;5034004;28;20079;-65
2022/06/04 04:24:10;;;;;;;9.73;8.35;;;18.00;99.90;;;;;;5034062;28;20029;-65
2022/06/04 04:26:36;;;;;;;10.63;8.98;;;18.00;99.90;;;;;;5034455;28;20022;-65
2022/06/04 04:29:01;;;;;;;9.75;8.75;;;18.00;99.90;;;;;;5034615;28;20036;-65
2022/06/04 04:31:27;;;;;;;8.52;7.72;;;18.20;99.90;;;;;;5033961;28;20105;-65
2022/06/04 04:33:52;;;;;;;9.18;8.05;;;18.40;99.90;;;;;;5034399;28;20033;-65
2022/06/04 04:36:18;;;;;;;9.87;8.30;;;18.50;99.90;;;;;;5034404;28;20045;-65
2022/06/04 04:38:43;;;;;;;10.63;8.13;;;18.50;99.90;;;;;;5033517;28;20275;-65
2022/06/04 04:41:11;;;;;;;8.57;7.68;;;18.60;99.90;;;;;;5034039;28;20026;-65
2022/06/04 04:43:36;;;;;;;8.82;7.65;;;18.70;99.90;;;;;;5036605;28;20120;-65
2022/06/04 04:46:04;;;;;;;8.73;7.47;;;18.90;99.90;;;;;;5037590;28;20101;-65
2022/06/04 04:48:30;;;;;;;7.80;7.00;;;19.00;99.90;;;;;;5037945;28;20451;-65
2022/06/04 04:50:56;;;;;;;8.90;7.25;;;19.10;99.90;;;;;;5037951;28;20030;-65
2022/06/04 04:53:22;;;;;;;8.00;6.57;;;19.10;99.90;;;;;;5037698;28;20034;-65
2022/06/04 04:55:48;;;;;;;8.30;6.70;;;19.20;99.90;;;;;;5037365;28;20558;-65
2022/06/04 04:58:14;;;;;;;;;;;19.30;99.90;;;;;;5036361;28;20038;-65
2022/06/04 05:00:39;;;;;;;10.70;7.90;;;19.50;99.90;;;;;;5037543;28;20035;-65
2022/06/04 05:03:05;;;;;;;8.18;7.32;;;19.40;99.90;;;;;;5037845;28;20097;-65
2022/06/04 05:05:31;;;;;;;7.95;7.15;;;19.40;99.90;;;;;;5038635;28;20022;-65
2022/06/04 05:07:57;;;;;;;8.75;7.50;;;19.30;99.90;;;;;;5037217;28;20095;-65
2022/06/04 05:10:22;;;;;;;;;;;19.20;99.90;;;;;;5036933;28;20029;-65
2022/06/04 05:12:54;;;;;;;10.65;7.35;;;19.20;99.90;;;;;;5036304;28;20314;-66
2022/06/04 05:15:21;;;;;;;7.95;7.25;;;19.10;99.90;;;;;;5036110;28;20044;-65
2022/06/04 05:17:46;;;;;;;8.60;7.70;;;19.00;99.90;;;;;;5036017;28;20037;-64
2022/06/04 05:20:12;;;;;;;9.00;8.10;;;19.00;99.90;;;;;;5035848;28;20037;-64
2022/06/04 05:22:38;;;;;;;10.10;8.38;;;19.10;99.90;;;;;;5036109;28;20053;-65
2022/06/04 05:25:04;;;;;;;9.45;8.40;;;19.00;99.90;;;;;;5034971;28;20018;-64
2022/06/04 05:27:29;;;;;;;11.68;9.57;;;19.00;99.90;;;;;;5036469;28;20025;-66
2022/06/04 05:29:56;;;;;;;10.57;9.05;;;19.00;99.90;;;;;;5035911;28;20026;-63
2022/06/04 05:32:22;;;;;;;13.20;10.23;;;19.10;99.90;;;;;;5035987;28;20105;-63
2022/06/04 05:34:47;;;;;;;12.98;10.07;;;19.10;99.90;;;;;;5036385;28;20119;-63
2022/06/04 05:37:13;;;;;;;11.25;10.13;;;19.10;99.90;;;;;;5035768;28;20399;-64
2022/06/04 05:39:39;;;;;;;12.27;10.98;;;19.10;99.90;;;;;;5035861;28;20029;-63
2022/06/04 05:42:05;;;;;;;14.38;11.48;;;19.10;99.90;;;;;;5035592;28;20037;-64
2022/06/04 05:44:30;;;;;;;13.40;12.05;;;19.10;99.90;;;;;;5035752;28;20045;-63
2022/06/04 05:46:57;;;;;;;13.45;12.07;;;19.10;99.90;;;;;;5035436;28;20025;-63
2022/06/04 05:49:22;;;;;;;15.70;12.60;;;19.10;99.90;;;;;;5035424;28;20018;-64
2022/06/04 05:51:50;;;;;;;14.50;12.82;;;19.00;99.90;;;;;;5035534;28;20106;-64
2022/06/04 05:54:16;;;;;;;15.73;13.60;;;18.90;99.90;;;;;;5034776;28;20022;-63
2022/06/04 05:56:44;;;;;;;13.95;12.55;;;18.90;99.90;;;;;;5034094;28;20365;-63
2022/06/04 05:59:13;;;;;;;16.45;13.07;;;18.90;99.90;;;;;;5035407;28;20507;-62
2022/06/04 06:01:41;;;;;;;14.95;13.45;;;18.90;99.90;;;;;;5035903;28;20026;-64
2022/06/04 06:04:08;;;;;;;15.70;12.65;;;18.90;99.90;;;;;;5036134;28;20472;-63
2022/06/04 06:06:36;;;;;;;14.70;13.13;;;19.00;99.90;;;;;;5035425;28;20021;-64
2022/06/04 06:09:04;;;;;;;15.88;13.55;;;18.90;99.90;;;;;;5035193;28;20018;-63
2022/06/04 06:11:31;;;;;;;15.18;13.57;;;18.90;99.90;;;;;;5036312;28;20033;-65
2022/06/04 06:13:57;;;;;;;;;;;18.90;99.90;;;;;;5036276;28;20116;-64
2022/06/04 06:16:25;;;;;;;15.98;14.13;;;18.90;99.90;;;;;;5035985;28;19941;-63
2022/06/04 06:18:51;;;;;;;15.80;13.80;;;18.90;99.90;;;;;;5036343;28;20484;-64
2022/06/04 06:21:20;;;;;;;14.63;13.07;;;19.00;99.90;;;;;;5034716;28;20044;-64
2022/06/04 06:23:47;;;;;;;16.02;13.70;;;19.00;99.90;;;;;;5034661;28;20025;-63
2022/06/04 06:26:13;;;;;;;;;;;19.00;99.90;;;;;;5036659;28;20037;-64
2022/06/04 06:28:40;;;;;;;15.32;11.95;;;19.00;99.90;;;;;;5037222;28;20317;-64
2022/06/04 06:31:08;;;;;;;14.15;12.65;;;19.10;99.90;;;;;;5034938;28;20376;-65
2022/06/04 06:33:34;;;;;;;15.70;13.40;;;19.20;99.90;;;;;;5034986;28;20024;-64
2022/06/04 06:36:03;;;;;;;16.15;13.70;;;19.20;99.90;;;;;;5035189;28;20337;-64
2022/06/04 06:38:29;;;;;;;15.30;12.98;;;19.30;99.90;;;;;;5034875;28;20025;-64
2022/06/04 06:40:56;;;;;;;14.38;12.77;;;19.30;99.90;;;;;;5034400;28;20029;-65
2022/06/04 06:43:23;;;;;;;14.70;13.13;;;19.40;99.90;;;;;;5034482;28;20029;-65
2022/06/04 06:45:49;;;;;;;16.00;13.55;;;19.40;99.90;;;;;;5033330;28;20022;-64
2022/06/04 06:48:15;;;;;;;15.27;13.32;;;19.40;99.90;;;;;;5034710;28;20071;-64
2022/06/04 06:50:42;;;;;;;;;;;19.40;99.90;;;;;;5034865;28;20468;-64
2022/06/04 06:53:08;;;;;;;16.58;12.98;;;19.40;99.90;;;;;;5034285;28;19916;-64
2022/06/04 06:55:34;;;;;;;19.77;15.15;;;19.40;99.90;;;;;;5034262;28;20037;-64
2022/06/04 06:57:59;;;;;;;17.00;14.43;;;19.40;99.90;;;;;;5034609;28;20069;-64
2022/06/04 07:00:25;;;;;;;19.05;15.82;;;19.30;99.90;;;;;;5034367;28;20130;-64
2022/06/04 07:02:51;;;;;;;16.48;14.77;;;19.30;99.90;;;;;;5034531;28;20018;-64
2022/06/04 07:05:16;;;;;;;17.75;14.65;;;19.50;99.90;;;;;;5034660;28;20506;-64
2022/06/04 07:07:42;;;;;;;17.00;15.20;;;19.40;99.90;;;;;;5034153;28;20026;-65
2022/06/04 07:10:09;;;;;;;16.85;14.63;;;19.70;99.90;;;;;;5035098;28;20033;-64
2022/06/04 07:12:35;;;;;;;17.63;15.70;;;19.70;99.90;;;;;;5034911;28;20036;-64
2022/06/04 07:15:00;;;;;;;16.35;14.75;;;19.90;99.90;;;;;;5034923;28;20026;-64
2022/06/04 07:17:26;;;;;;;16.15;14.38;;;19.80;99.90;;;;;;5034963;28;20116;-62
2022/06/04 07:19:52;;;;;;;17.65;14.80;;;19.90;99.90;;;;;;5034865;28;20481;-62
2022/06/04 07:22:17;;;;;;;16.80;15.00;;;20.10;99.90;;;;;;5035207;28;20061;-64
2022/06/04 07:24:43;;;;;;;18.15;14.77;;;20.20;99.90;;;;;;5034626;28;20387;-63
2022/06/04 07:27:09;;;;;;;16.63;14.27;;;20.30;99.90;;;;;;5034019;28;20033;-64
2022/06/04 07:29:36;;;;;;;16.60;14.90;;;20.30;99.90;;;;;;5033793;28;20033;-62
2022/06/04 07:32:02;;;;;;;17.67;15.85;;;20.30;99.90;;;;;;5033671;28;20053;-64
2022/06/04 07:34:28;;;;;;;17.45;15.70;;;20.20;99.90;;;;;;5033418;28;20034;-63
2022/06/04 07:36:54;;;;;;;19.75;15.48;;;20.40;99.90;;;;;;5033995;28;20053;-63
2022/06/04 07:39:19;;;;;;;17.90;15.50;;;20.30;99.90;;;;;;5033400;28;20033;-64
2022/06/04 07:41:54;;;;;;;17.95;16.15;;;20.30;99.90;;;;;;5033804;28;20025;-65
2022/06/04 07:44:23;;;;;;;17.58;15.68;;;20.40;99.90;;;;;;5033366;28;20026;-64
2022/06/04 07:46:50;;;;;;;16.95;15.23;;;20.50;99.90;;;;;;5034041;28;20025;-63
2022/06/04 07:49:17;;;;;;;17.73;15.85;;;20.50;99.90;;;;;;5033962;28;20352;-62
2022/06/04 07:51:45;;;;;;;16.55;14.85;;;20.50;99.90;;;;;;5033793;28;20030;-63
2022/06/04 07:54:11;;;;;;;17.45;15.65;;;20.60;99.90;;;;;;5031974;28;20029;-64
2022/06/04 07:56:38;;;;;;;17.17;15.35;;;20.60;99.90;;;;;;5033658;28;20114;-64
2022/06/04 07:59:06;;;;;;;17.23;15.40;;;20.60;99.90;;;;;;5033793;28;20033;-63
2022/06/04 08:01:32;;;;;;;17.08;15.40;;;20.70;99.90;;;;;;5034165;28;20033;-62
2022/06/04 08:03:57;;;;;;;20.35;16.38;;;20.60;99.90;;;;;;5033782;28;20066;-63
2022/06/04 08:06:23;;;;;;;18.17;16.27;;;20.50;99.90;;;;;;5033058;28;20034;-63
2022/06/04 08:08:51;;;;;;;17.98;15.85;;;20.50;99.90;;;;;;5033080;28;20051;-63
2022/06/04 08:11:31;;;;;;;18.90;16.98;;;20.40;99.90;;;;;;5033102;28;20042;-66
2022/06/04 08:13:59;;;;;;;17.63;15.68;;;20.40;99.90;;;;;;5032980;28;20032;-65
2022/06/04 08:16:25;;;;;;;17.92;16.02;;;20.30;99.90;;;;;;5033063;28;20052;-65
2022/06/04 08:18:50;;;;;;;18.52;16.65;;;20.40;99.90;;;;;;5038143;28;20060;-65
2022/06/04 08:21:16;;;;;;;18.95;16.38;;;20.40;99.90;;;;;;5039236;28;20040;-65
2022/06/04 08:23:44;;;;;;;18.75;16.75;;;20.40;99.90;;;;;;5038236;28;20021;-64
2022/06/04 08:26:11;;;;;;;17.05;15.27;;;20.30;99.90;;;;;;5039195;28;20018;-64
2022/06/04 08:28:37;;;;;;;19.48;16.52;;;20.40;99.90;;;;;;5039260;28;20037;-62
2022/06/04 08:31:06;;;;;;;18.55;16.73;;;20.40;99.90;;;;;;5039225;28;20029;-62
2022/06/04 08:33:32;;;;;;;17.77;16.05;;;20.40;99.90;;;;;;5039266;28;20108;-64
